sensor_id;sensor_type;location;lat;lon;timestamp;temperature;humidity
1461;DHT22;724;49.910;12.530;2023-12-20T00:00:34;1.60;99.90
1461;DHT22;724;49.910;12.530;2023-12-20T00:03:03;1.60;99.90
1461;DHT22;724;49.910;12.530;2023-12-20T00:05:29;1.50;99.90
1461;DHT22;724;49.910;12.530;2023-12-20T00:07:59;1.60;99.90
1461;DHT22;724;49.910;12.530;2023-12-20T00:10:25;1.60;99.90
1461;DHT22;724;49.910;12.530;2023-12-20T00:12:53;1.60;99.90
1461;DHT22;724;49.910;12.530;2023-12-20T00:15:20;1.60;99.90
1461;DHT22;724;49.910;12.530;2023-12-20T00:17:47;1.60;99.90
1461;DHT22;724;49.910;12.530;2023-12-20T00:20:14;1.60;99.90
1461;DHT22;724;49.910;12.530;2023-12-20T00:22:39;1.60;99.90
1461;DHT22;724;49.910;12.530;2023-12-20T00:25:08;1.60;99.90
1461;DHT22;724;49.910;12.530;2023-12-20T00:27:35;1.70;99.90
1461;DHT22;724;49.910;12.530;2023-12-20T00:30:04;1.60;99.90
1461;DHT22;724;49.910;12.530;2023-12-20T00:32:31;1.60;99.90
1461;DHT22;724;49.910;12.530;2023-12-20T00:34:58;1.70;99.90
1461;DHT22;724;49.910;12.530;2023-12-20T00:37:25;1.70;99.90
1461;DHT22;724;49.910;12.530;2023-12-20T00:39:52;1.70;99.90
1461;DHT22;724;49.910;12.530;2023-12-20T00:42:18;1.70;99.90
1461;DHT22;724;49.910;12.530;2023-12-20T00:44:46;1.70;99.90
1461;DHT22;724;49.910;12.530;2023-12-20T00:47:14;1.80;99.90
1461;DHT22;724;49.910;12.530;2023-12-20T00:49:41;1.70;99.90
1461;DHT22;724;49.910;12.530;2023-12-20T00:52:08;1.80;99.90
1461;DHT22;724;49.910;12.530;2023-12-20T00:54:34;1.70;99.90
1461;DHT22;724;49.910;12.530;2023-12-20T00:57:01;1.80;99.90
1461;DHT22;724;49.910;12.530;2023-12-20T00:59:28;1.80;99.90
1461;DHT22;724;49.910;12.530;2023-12-20T01:01:55;1.80;99.90
1461;DHT22;724;49.910;12.530;2023-12-20T01:04:25;1.80;99.90
1461;DHT22;724;49.910;12.530;2023-12-20T01:06:52;1.80;99.90
1461;DHT22;724;49.910;12.530;2023-12-20T01:09:19;1.70;99.90
1461;DHT22;724;49.910;12.530;2023-12-20T01:11:48;1.70;99.90
1461;DHT22;724;49.910;12.530;2023-12-20T01:14:15;1.80;99.90
1461;DHT22;724;49.910;12.530;2023-12-20T01:16:42;1.80;99.90
1461;DHT22;724;49.910;12.530;2023-12-20T01:19:09;1.70;99.90
1461;DHT22;724;49.910;12.530;2023-12-20T01:21:37;1.70;99.90
1461;DHT22;724;49.910;12.530;2023-12-20T01:24:04;1.70;99.90
1461;DHT22;724;49.910;12.530;2023-12-20T01:26:31;1.70;99.90
1461;DHT22;724;49.910;12.530;2023-12-20T01:28:57;1.70;99.90
1461;DHT22;724;49.910;12.530;2023-12-20T01:31:24;1.70;99.90
1461;DHT22;724;49.910;12.530;2023-12-20T01:33:52;1.70;99.90
1461;DHT22;724;49.910;12.530;2023-12-20T01:36:19;1.70;99.90
1461;DHT22;724;49.910;12.530;2023-12-20T01:38:47;1.70;99.90
1461;DHT22;724;49.910;12.530;2023-12-20T01:41:14;1.70;99.90
1461;DHT22;724;49.910;12.530;2023-12-20T01:43:40;1.70;99.90
1461;DHT22;724;49.910;12.530;2023-12-20T01:46:07;1.60;99.90
1461;DHT22;724;49.910;12.530;2023-12-20T01:48:34;1.60;99.90
1461;DHT22;724;49.910;12.530;2023-12-20T01:51:02;1.60;99.90
1461;DHT22;724;49.910;12.530;2023-12-20T01:53:29;1.60;99.90
1461;DHT22;724;49.910;12.530;2023-12-20T01:55:58;1.60;99.90
1461;DHT22;724;49.910;12.530;2023-12-20T01:58:26;1.60;99.90
1461;DHT22;724;49.910;12.530;2023-12-20T02:00:53;1.60;99.90
1461;DHT22;724;49.910;12.530;2023-12-20T02:03:20;1.60;99.90
1461;DHT22;724;49.910;12.530;2023-12-20T02:05:47;1.60;99.90
1461;DHT22;724;49.910;12.530;2023-12-20T02:08:14;1.60;99.90
1461;DHT22;724;49.910;12.530;2023-12-20T02:10:41;1.60;99.90
1461;DHT22;724;49.910;12.530;2023-12-20T02:13:09;1.70;99.90
1461;DHT22;724;49.910;12.530;2023-12-20T02:15:36;1.70;99.90
1461;DHT22;724;49.910;12.530;2023-12-20T02:18:04;1.70;99.90
1461;DHT22;724;49.910;12.530;2023-12-20T02:20:30;1.60;99.90
1461;DHT22;724;49.910;12.530;2023-12-20T02:22:58;1.60;99.90
1461;DHT22;724;49.910;12.530;2023-12-20T02:25:25;1.70;99.90
1461;DHT22;724;49.910;12.530;2023-12-20T02:27:52;1.70;99.90
1461;DHT22;724;49.910;12.530;2023-12-20T02:30:19;1.60;99.90
1461;DHT22;724;49.910;12.530;2023-12-20T02:32:47;1.70;99.90
1461;DHT22;724;49.910;12.530;2023-12-20T02:35:14;1.70;99.90
1461;DHT22;724;49.910;12.530;2023-12-20T02:37:41;1.70;99.90
1461;DHT22;724;49.910;12.530;2023-12-20T02:40:10;1.70;99.90
1461;DHT22;724;49.910;12.530;2023-12-20T02:42:37;1.70;99.90
1461;DHT22;724;49.910;12.530;2023-12-20T02:45:05;1.70;99.90
1461;DHT22;724;49.910;12.530;2023-12-20T02:47:34;1.70;99.90
1461;DHT22;724;49.910;12.530;2023-12-20T02:50:03;1.70;99.90
1461;DHT22;724;49.910;12.530;2023-12-20T02:52:30;1.70;99.90
1461;DHT22;724;49.910;12.530;2023-12-20T02:54:58;1.60;99.90
1461;DHT22;724;49.910;12.530;2023-12-20T02:57:26;1.70;99.90
1461;DHT22;724;49.910;12.530;2023-12-20T02:59:53;1.70;99.90
1461;DHT22;724;49.910;12.530;2023-12-20T03:02:20;1.70;99.90
1461;DHT22;724;49.910;12.530;2023-12-20T03:04:46;1.70;99.90
1461;DHT22;724;49.910;12.530;2023-12-20T03:07:13;1.60;99.90
1461;DHT22;724;49.910;12.530;2023-12-20T03:09:41;1.60;99.90
1461;DHT22;724;49.910;12.530;2023-12-20T03:12:08;1.60;99.90
1461;DHT22;724;49.910;12.530;2023-12-20T03:14:36;1.60;99.90
1461;DHT22;724;49.910;12.530;2023-12-20T03:17:03;1.70;99.90
1461;DHT22;724;49.910;12.530;2023-12-20T03:19:29;1.60;99.90
1461;DHT22;724;49.910;12.530;2023-12-20T03:21:56;1.60;99.90
1461;DHT22;724;49.910;12.530;2023-12-20T03:24:26;1.60;99.90
1461;DHT22;724;49.910;12.530;2023-12-20T03:26:53;1.60;99.90
1461;DHT22;724;49.910;12.530;2023-12-20T03:29:20;1.50;99.90
1461;DHT22;724;49.910;12.530;2023-12-20T03:31:48;1.50;99.90
1461;DHT22;724;49.910;12.530;2023-12-20T03:34:14;1.50;99.90
1461;DHT22;724;49.910;12.530;2023-12-20T03:36:41;1.50;99.90
1461;DHT22;724;49.910;12.530;2023-12-20T03:39:08;1.40;99.90
1461;DHT22;724;49.910;12.530;2023-12-20T03:41:35;1.40;99.90
1461;DHT22;724;49.910;12.530;2023-12-20T03:44:02;1.40;99.90
1461;DHT22;724;49.910;12.530;2023-12-20T03:46:29;1.40;99.90
1461;DHT22;724;49.910;12.530;2023-12-20T03:48:57;1.30;99.90
1461;DHT22;724;49.910;12.530;2023-12-20T03:51:23;1.30;99.90
1461;DHT22;724;49.910;12.530;2023-12-20T03:53:52;1.30;99.90
1461;DHT22;724;49.910;12.530;2023-12-20T03:56:19;1.30;99.90
1461;DHT22;724;49.910;12.530;2023-12-20T03:58:45;1.30;99.90
1461;DHT22;724;49.910;12.530;2023-12-20T04:01:12;1.30;99.90
1461;DHT22;724;49.910;12.530;2023-12-20T04:03:39;1.30;99.90
1461;DHT22;724;49.910;12.530;2023-12-20T04:06:08;1.20;99.90
1461;DHT22;724;49.910;12.530;2023-12-20T04:08:35;1.20;99.90
1461;DHT22;724;49.910;12.530;2023-12-20T04:11:01;1.10;99.90
1461;DHT22;724;49.910;12.530;2023-12-20T04:13:28;1.20;99.90
1461;DHT22;724;49.910;12.530;2023-12-20T04:15:55;1.10;99.90
1461;DHT22;724;49.910;12.530;2023-12-20T04:18:22;1.10;99.90
1461;DHT22;724;49.910;12.530;2023-12-20T04:20:49;1.10;99.90
1461;DHT22;724;49.910;12.530;2023-12-20T04:23:18;1.10;99.90
1461;DHT22;724;49.910;12.530;2023-12-20T04:25:45;1.10;99.90
1461;DHT22;724;49.910;12.530;2023-12-20T04:28:12;1.10;99.90
1461;DHT22;724;49.910;12.530;2023-12-20T04:30:39;1.10;99.90
1461;DHT22;724;49.910;12.530;2023-12-20T04:33:05;1.00;99.90
1461;DHT22;724;49.910;12.530;2023-12-20T04:35:33;1.00;99.90
1461;DHT22;724;49.910;12.530;2023-12-20T04:38:00;1.00;99.90
1461;DHT22;724;49.910;12.530;2023-12-20T04:40:28;1.00;99.90
1461;DHT22;724;49.910;12.530;2023-12-20T04:42:55;1.00;99.90
1461;DHT22;724;49.910;12.530;2023-12-20T04:45:22;1.10;99.90
1461;DHT22;724;49.910;12.530;2023-12-20T04:47:50;1.00;99.90
1461;DHT22;724;49.910;12.530;2023-12-20T04:50:17;1.00;99.90
1461;DHT22;724;49.910;12.530;2023-12-20T04:52:45;1.00;99.90
1461;DHT22;724;49.910;12.530;2023-12-20T04:55:12;1.00;99.90
1461;DHT22;724;49.910;12.530;2023-12-20T04:57:40;1.00;99.90
1461;DHT22;724;49.910;12.530;2023-12-20T05:00:08;1.00;99.90
1461;DHT22;724;49.910;12.530;2023-12-20T05:02:35;1.00;99.90
1461;DHT22;724;49.910;12.530;2023-12-20T05:05:02;1.00;99.90
1461;DHT22;724;49.910;12.530;2023-12-20T05:07:29;1.00;99.90
1461;DHT22;724;49.910;12.530;2023-12-20T05:09:55;1.00;99.90
1461;DHT22;724;49.910;12.530;2023-12-20T05:12:22;1.00;99.90
1461;DHT22;724;49.910;12.530;2023-12-20T05:14:51;1.00;99.90
1461;DHT22;724;49.910;12.530;2023-12-20T05:17:18;1.00;99.90
1461;DHT22;724;49.910;12.530;2023-12-20T05:19:46;1.00;99.90
1461;DHT22;724;49.910;12.530;2023-12-20T05:22:12;1.10;99.90
1461;DHT22;724;49.910;12.530;2023-12-20T05:24:39;1.10;99.90
1461;DHT22;724;49.910;12.530;2023-12-20T05:27:06;1.00;99.90
1461;DHT22;724;49.910;12.530;2023-12-20T05:29:33;1.10;99.90
1461;DHT22;724;49.910;12.530;2023-12-20T05:32:01;1.00;99.90
1461;DHT22;724;49.910;12.530;2023-12-20T05:34:29;1.10;99.90
1461;DHT22;724;49.910;12.530;2023-12-20T05:36:55;1.10;99.90
1461;DHT22;724;49.910;12.530;2023-12-20T05:39:22;1.00;99.90
1461;DHT22;724;49.910;12.530;2023-12-20T05:41:49;1.00;99.90
1461;DHT22;724;49.910;12.530;2023-12-20T05:44:15;1.00;99.90
1461;DHT22;724;49.910;12.530;2023-12-20T05:46:42;0.90;99.90
1461;DHT22;724;49.910;12.530;2023-12-20T05:49:10;1.00;99.90
1461;DHT22;724;49.910;12.530;2023-12-20T05:51:37;1.00;99.90
1461;DHT22;724;49.910;12.530;2023-12-20T05:54:04;0.90;99.90
1461;DHT22;724;49.910;12.530;2023-12-20T05:56:30;1.00;99.90
1461;DHT22;724;49.910;12.530;2023-12-20T05:58:57;0.90;99.90
1461;DHT22;724;49.910;12.530;2023-12-20T06:01:24;1.00;99.90
1461;DHT22;724;49.910;12.530;2023-12-20T06:03:51;1.00;99.90
1461;DHT22;724;49.910;12.530;2023-12-20T06:06:19;0.90;99.90
1461;DHT22;724;49.910;12.530;2023-12-20T06:08:45;1.00;99.90
1461;DHT22;724;49.910;12.530;2023-12-20T06:11:12;0.90;99.90
1461;DHT22;724;49.910;12.530;2023-12-20T06:13:39;0.90;99.90
1461;DHT22;724;49.910;12.530;2023-12-20T06:16:06;1.00;99.90
1461;DHT22;724;49.910;12.530;2023-12-20T06:18:32;0.90;99.90
1461;DHT22;724;49.910;12.530;2023-12-20T06:20:59;1.00;99.90
1461;DHT22;724;49.910;12.530;2023-12-20T06:23:27;1.00;99.90
1461;DHT22;724;49.910;12.530;2023-12-20T06:25:54;1.00;99.90
1461;DHT22;724;49.910;12.530;2023-12-20T06:28:21;1.10;99.90
1461;DHT22;724;49.910;12.530;2023-12-20T06:30:48;1.10;99.90
1461;DHT22;724;49.910;12.530;2023-12-20T06:33:15;1.20;99.90
1461;DHT22;724;49.910;12.530;2023-12-20T06:35:42;1.10;99.90
1461;DHT22;724;49.910;12.530;2023-12-20T06:38:08;1.10;99.90
1461;DHT22;724;49.910;12.530;2023-12-20T06:40:36;1.10;99.90
1461;DHT22;724;49.910;12.530;2023-12-20T06:43:03;1.20;99.90
1461;DHT22;724;49.910;12.530;2023-12-20T06:45:32;1.10;99.90
1461;DHT22;724;49.910;12.530;2023-12-20T06:47:59;1.10;99.90
1461;DHT22;724;49.910;12.530;2023-12-20T06:50:25;1.10;99.90
1461;DHT22;724;49.910;12.530;2023-12-20T06:52:53;1.10;99.90
1461;DHT22;724;49.910;12.530;2023-12-20T06:55:19;1.10;99.90
1461;DHT22;724;49.910;12.530;2023-12-20T06:57:47;1.10;99.90
1461;DHT22;724;49.910;12.530;2023-12-20T07:00:15;1.10;99.90
1461;DHT22;724;49.910;12.530;2023-12-20T07:02:44;1.20;99.90
1461;DHT22;724;49.910;12.530;2023-12-20T07:05:15;1.10;99.90
1461;DHT22;724;49.910;12.530;2023-12-20T07:07:42;1.10;99.90
1461;DHT22;724;49.910;12.530;2023-12-20T07:10:09;1.10;99.90
1461;DHT22;724;49.910;12.530;2023-12-20T07:12:36;1.10;99.90
1461;DHT22;724;49.910;12.530;2023-12-20T07:15:05;1.10;99.90
1461;DHT22;724;49.910;12.530;2023-12-20T07:17:32;1.10;99.90
1461;DHT22;724;49.910;12.530;2023-12-20T07:19:59;1.20;99.90
1461;DHT22;724;49.910;12.530;2023-12-20T07:22:29;1.10;99.90
1461;DHT22;724;49.910;12.530;2023-12-20T07:24:57;1.10;99.90
1461;DHT22;724;49.910;12.530;2023-12-20T07:27:23;1.20;99.90
1461;DHT22;724;49.910;12.530;2023-12-20T07:29:50;1.20;99.90
1461;DHT22;724;49.910;12.530;2023-12-20T07:32:18;1.20;99.90
1461;DHT22;724;49.910;12.530;2023-12-20T07:34:45;1.30;99.90
1461;DHT22;724;49.910;12.530;2023-12-20T07:37:12;1.30;99.90
1461;DHT22;724;49.910;12.530;2023-12-20T07:39:39;1.30;99.90
1461;DHT22;724;49.910;12.530;2023-12-20T07:42:06;1.30;99.90
1461;DHT22;724;49.910;12.530;2023-12-20T07:44:33;1.30;99.90
1461;DHT22;724;49.910;12.530;2023-12-20T07:47:01;1.30;99.90
1461;DHT22;724;49.910;12.530;2023-12-20T07:49:30;1.40;99.90
1461;DHT22;724;49.910;12.530;2023-12-20T07:51:57;1.40;99.90
1461;DHT22;724;49.910;12.530;2023-12-20T07:54:24;1.30;99.90
1461;DHT22;724;49.910;12.530;2023-12-20T07:56:50;1.30;99.90
1461;DHT22;724;49.910;12.530;2023-12-20T07:59:17;1.30;99.90
1461;DHT22;724;49.910;12.530;2023-12-20T08:01:44;1.40;99.90
1461;DHT22;724;49.910;12.530;2023-12-20T08:04:10;1.40;99.90
1461;DHT22;724;49.910;12.530;2023-12-20T08:06:39;1.30;99.90
1461;DHT22;724;49.910;12.530;2023-12-20T08:09:05;1.50;99.90
1461;DHT22;724;49.910;12.530;2023-12-20T08:11:32;1.60;99.90
1461;DHT22;724;49.910;12.530;2023-12-20T08:13:59;1.50;99.90
1461;DHT22;724;49.910;12.530;2023-12-20T08:16:26;1.50;99.90
1461;DHT22;724;49.910;12.530;2023-12-20T08:18:52;1.60;99.90
1461;DHT22;724;49.910;12.530;2023-12-20T08:21:19;1.50;99.90
1461;DHT22;724;49.910;12.530;2023-12-20T08:23:49;1.40;99.90
1461;DHT22;724;49.910;12.530;2023-12-20T08:26:18;1.60;99.90
1461;DHT22;724;49.910;12.530;2023-12-20T08:28:46;1.50;99.90
1461;DHT22;724;49.910;12.530;2023-12-20T08:31:14;1.50;99.90
1461;DHT22;724;49.910;12.530;2023-12-20T08:33:43;1.50;99.90
1461;DHT22;724;49.910;12.530;2023-12-20T08:36:09;1.50;99.90
1461;DHT22;724;49.910;12.530;2023-12-20T08:38:36;1.60;99.90
1461;DHT22;724;49.910;12.530;2023-12-20T08:41:04;1.50;99.90
1461;DHT22;724;49.910;12.530;2023-12-20T08:43:31;1.60;99.90
1461;DHT22;724;49.910;12.530;2023-12-20T08:45:58;1.60;99.90
1461;DHT22;724;49.910;12.530;2023-12-20T08:48:25;1.60;99.90
1461;DHT22;724;49.910;12.530;2023-12-20T08:50:51;1.70;99.90
1461;DHT22;724;49.910;12.530;2023-12-20T08:53:18;1.70;99.90
1461;DHT22;724;49.910;12.530;2023-12-20T08:55:45;1.70;99.90
1461;DHT22;724;49.910;12.530;2023-12-20T08:58:13;1.70;99.90
1461;DHT22;724;49.910;12.530;2023-12-20T09:00:40;1.70;99.90
1461;DHT22;724;49.910;12.530;2023-12-20T09:03:07;1.80;99.90
1461;DHT22;724;49.910;12.530;2023-12-20T09:05:33;1.80;99.90
1461;DHT22;724;49.910;12.530;2023-12-20T09:08:00;1.80;99.90
1461;DHT22;724;49.910;12.530;2023-12-20T09:10:27;1.90;99.90
1461;DHT22;724;49.910;12.530;2023-12-20T09:12:54;1.90;99.90
1461;DHT22;724;49.910;12.530;2023-12-20T09:15:24;2.00;99.90
1461;DHT22;724;49.910;12.530;2023-12-20T09:17:51;2.10;99.90
1461;DHT22;724;49.910;12.530;2023-12-20T09:20:18;2.10;99.90
1461;DHT22;724;49.910;12.530;2023-12-20T09:22:45;2.20;99.90
1461;DHT22;724;49.910;12.530;2023-12-20T09:25:13;2.30;99.90
1461;DHT22;724;49.910;12.530;2023-12-20T09:27:41;4.00;99.90
1461;DHT22;724;49.910;12.530;2023-12-20T09:30:08;8.10;99.90
1461;DHT22;724;49.910;12.530;2023-12-20T09:32:37;8.00;77.80
1461;DHT22;724;49.910;12.530;2023-12-20T09:35:05;9.40;1.00
1461;DHT22;724;49.910;12.530;2023-12-20T09:37:35;6.80;1.00
1461;DHT22;724;49.910;12.530;2023-12-20T09:40:02;5.60;1.00
1461;DHT22;724;49.910;12.530;2023-12-20T09:42:35;4.80;34.00
1461;DHT22;724;49.910;12.530;2023-12-20T09:45:08;5.40;81.80
1461;DHT22;724;49.910;12.530;2023-12-20T09:47:37;8.30;1.00
1461;DHT22;724;49.910;12.530;2023-12-20T09:50:05;5.70;99.90
1461;DHT22;724;49.910;12.530;2023-12-20T09:52:33;4.20;1.00
1461;DHT22;724;49.910;12.530;2023-12-20T09:55:01;3.80;1.00
1461;DHT22;724;49.910;12.530;2023-12-20T09:57:31;3.70;17.10
1461;DHT22;724;49.910;12.530;2023-12-20T09:59:58;3.30;99.90
1461;DHT22;724;49.910;12.530;2023-12-20T10:02:25;3.20;1.00
1461;DHT22;724;49.910;12.530;2023-12-20T10:04:54;3.10;1.00
1461;DHT22;724;49.910;12.530;2023-12-20T10:07:21;2.90;45.70
1461;DHT22;724;49.910;12.530;2023-12-20T10:09:49;2.70;99.90
1461;DHT22;724;49.910;12.530;2023-12-20T10:12:17;2.80;1.00
1461;DHT22;724;49.910;12.530;2023-12-20T10:14:44;3.00;1.00
1461;DHT22;724;49.910;12.530;2023-12-20T10:17:12;2.90;1.00
1461;DHT22;724;49.910;12.530;2023-12-20T10:19:39;2.80;1.00
1461;DHT22;724;49.910;12.530;2023-12-20T10:22:07;2.80;1.00
1461;DHT22;724;49.910;12.530;2023-12-20T10:24:34;2.80;1.00
1461;DHT22;724;49.910;12.530;2023-12-20T10:27:02;2.60;1.00
1461;DHT22;724;49.910;12.530;2023-12-20T10:29:32;2.60;99.90
1461;DHT22;724;49.910;12.530;2023-12-20T10:32:21;2.70;99.90
1461;DHT22;724;49.910;12.530;2023-12-20T10:34:48;2.80;99.90
1461;DHT22;724;49.910;12.530;2023-12-20T10:37:16;2.70;99.90
1461;DHT22;724;49.910;12.530;2023-12-20T10:39:43;2.70;1.00
1461;DHT22;724;49.910;12.530;2023-12-20T10:42:11;2.60;1.00
1461;DHT22;724;49.910;12.530;2023-12-20T10:44:40;2.50;1.00
1461;DHT22;724;49.910;12.530;2023-12-20T10:47:09;2.30;1.00
1461;DHT22;724;49.910;12.530;2023-12-20T10:49:39;2.30;1.00
1461;DHT22;724;49.910;12.530;2023-12-20T10:52:08;2.50;1.00
1461;DHT22;724;49.910;12.530;2023-12-20T10:54:37;2.40;1.00
1461;DHT22;724;49.910;12.530;2023-12-20T10:57:05;2.60;8.50
1461;DHT22;724;49.910;12.530;2023-12-20T10:59:35;2.40;1.00
1461;DHT22;724;49.910;12.530;2023-12-20T11:02:03;2.40;1.00
1461;DHT22;724;49.910;12.530;2023-12-20T11:04:39;2.50;1.00
1461;DHT22;724;49.910;12.530;2023-12-20T11:07:17;2.50;1.00
1461;DHT22;724;49.910;12.530;2023-12-20T11:09:56;2.50;1.00
1461;DHT22;724;49.910;12.530;2023-12-20T11:12:32;2.30;1.00
1461;DHT22;724;49.910;12.530;2023-12-20T11:15:01;2.70;85.20
1461;DHT22;724;49.910;12.530;2023-12-20T11:17:31;2.70;1.00
1461;DHT22;724;49.910;12.530;2023-12-20T11:20:08;2.80;1.00
1461;DHT22;724;49.910;12.530;2023-12-20T11:22:38;2.70;1.00
1461;DHT22;724;49.910;12.530;2023-12-20T11:25:10;2.70;1.00
1461;DHT22;724;49.910;12.530;2023-12-20T11:27:41;2.60;1.00
1461;DHT22;724;49.910;12.530;2023-12-20T11:30:09;2.60;1.00
1461;DHT22;724;49.910;12.530;2023-12-20T11:32:37;2.50;1.00
1461;DHT22;724;49.910;12.530;2023-12-20T11:35:18;2.70;1.00
1461;DHT22;724;49.910;12.530;2023-12-20T11:37:45;2.50;1.00
1461;DHT22;724;49.910;12.530;2023-12-20T11:40:16;2.50;1.00
1461;DHT22;724;49.910;12.530;2023-12-20T11:42:44;2.30;1.00
1461;DHT22;724;49.910;12.530;2023-12-20T11:45:13;2.30;1.00
1461;DHT22;724;49.910;12.530;2023-12-20T11:47:42;2.30;1.00
1461;DHT22;724;49.910;12.530;2023-12-20T11:50:09;2.30;4.80
1461;DHT22;724;49.910;12.530;2023-12-20T11:52:36;2.30;3.60
1461;DHT22;724;49.910;12.530;2023-12-20T11:55:04;2.30;10.70
1461;DHT22;724;49.910;12.530;2023-12-20T11:57:33;2.30;38.20
1461;DHT22;724;49.910;12.530;2023-12-20T11:59:59;2.20;10.20
1461;DHT22;724;49.910;12.530;2023-12-20T12:02:26;2.20;6.90
1461;DHT22;724;49.910;12.530;2023-12-20T12:04:53;2.20;1.00
1461;DHT22;724;49.910;12.530;2023-12-20T12:07:21;2.20;1.00
1461;DHT22;724;49.910;12.530;2023-12-20T12:09:48;2.20;1.00
1461;DHT22;724;49.910;12.530;2023-12-20T12:12:16;2.20;1.00
1461;DHT22;724;49.910;12.530;2023-12-20T12:14:46;2.20;1.00
1461;DHT22;724;49.910;12.530;2023-12-20T12:17:13;2.30;1.00
1461;DHT22;724;49.910;12.530;2023-12-20T12:19:41;2.20;1.00
1461;DHT22;724;49.910;12.530;2023-12-20T12:22:09;2.20;1.00
1461;DHT22;724;49.910;12.530;2023-12-20T12:24:38;2.30;1.00
1461;DHT22;724;49.910;12.530;2023-12-20T12:27:06;2.20;1.00
1461;DHT22;724;49.910;12.530;2023-12-20T12:29:33;2.10;1.00
1461;DHT22;724;49.910;12.530;2023-12-20T12:32:05;2.10;1.00
1461;DHT22;724;49.910;12.530;2023-12-20T12:34:32;2.30;1.00
1461;DHT22;724;49.910;12.530;2023-12-20T12:36:59;2.40;1.00
1461;DHT22;724;49.910;12.530;2023-12-20T12:39:26;2.50;1.00
1461;DHT22;724;49.910;12.530;2023-12-20T12:41:55;3.00;1.00
1461;DHT22;724;49.910;12.530;2023-12-20T12:44:22;3.30;1.00
1461;DHT22;724;49.910;12.530;2023-12-20T12:46:50;2.90;99.90
1461;DHT22;724;49.910;12.530;2023-12-20T12:49:20;2.60;99.90
1461;DHT22;724;49.910;12.530;2023-12-20T12:51:47;2.60;99.90
1461;DHT22;724;49.910;12.530;2023-12-20T12:54:14;2.50;99.90
1461;DHT22;724;49.910;12.530;2023-12-20T12:56:42;2.40;1.00
1461;DHT22;724;49.910;12.530;2023-12-20T12:59:09;2.40;1.00
1461;DHT22;724;49.910;12.530;2023-12-20T13:01:36;2.30;1.00
1461;DHT22;724;49.910;12.530;2023-12-20T13:04:04;2.40;1.00
1461;DHT22;724;49.910;12.530;2023-12-20T13:06:37;2.40;1.00
1461;DHT22;724;49.910;12.530;2023-12-20T13:09:04;2.30;1.00
1461;DHT22;724;49.910;12.530;2023-12-20T13:11:31;2.20;1.00
1461;DHT22;724;49.910;12.530;2023-12-20T13:13:58;2.20;1.00
1461;DHT22;724;49.910;12.530;2023-12-20T13:16:25;2.20;96.30
1461;DHT22;724;49.910;12.530;2023-12-20T13:18:52;2.10;99.90
1461;DHT22;724;49.910;12.530;2023-12-20T13:21:19;2.00;99.90
1461;DHT22;724;49.910;12.530;2023-12-20T13:23:47;2.00;99.90
1461;DHT22;724;49.910;12.530;2023-12-20T13:26:14;2.10;99.90
1461;DHT22;724;49.910;12.530;2023-12-20T13:28:41;2.10;99.90
1461;DHT22;724;49.910;12.530;2023-12-20T13:31:07;2.10;99.90
1461;DHT22;724;49.910;12.530;2023-12-20T13:33:35;2.10;99.90
1461;DHT22;724;49.910;12.530;2023-12-20T13:36:02;2.10;99.90
1461;DHT22;724;49.910;12.530;2023-12-20T13:38:29;2.10;99.90
1461;DHT22;724;49.910;12.530;2023-12-20T13:40:57;2.00;99.90
1461;DHT22;724;49.910;12.530;2023-12-20T13:43:24;1.90;99.90
1461;DHT22;724;49.910;12.530;2023-12-20T13:45:51;2.00;99.90
1461;DHT22;724;49.910;12.530;2023-12-20T13:48:18;2.10;99.90
1461;DHT22;724;49.910;12.530;2023-12-20T13:50:44;1.90;99.90
1461;DHT22;724;49.910;12.530;2023-12-20T13:53:11;1.90;99.90
1461;DHT22;724;49.910;12.530;2023-12-20T13:55:38;2.00;99.90
1461;DHT22;724;49.910;12.530;2023-12-20T13:58:07;1.90;99.90
1461;DHT22;724;49.910;12.530;2023-12-20T14:00:35;1.90;99.90
1461;DHT22;724;49.910;12.530;2023-12-20T14:03:02;1.90;99.90
1461;DHT22;724;49.910;12.530;2023-12-20T14:05:29;1.90;99.90
1461;DHT22;724;49.910;12.530;2023-12-20T14:07:56;1.90;99.90
1461;DHT22;724;49.910;12.530;2023-12-20T14:10:23;1.90;99.90
1461;DHT22;724;49.910;12.530;2023-12-20T14:12:58;1.90;99.90
1461;DHT22;724;49.910;12.530;2023-12-20T14:15:27;1.80;99.90
1461;DHT22;724;49.910;12.530;2023-12-20T14:17:53;1.80;99.90
1461;DHT22;724;49.910;12.530;2023-12-20T14:20:21;1.80;99.90
1461;DHT22;724;49.910;12.530;2023-12-20T14:22:47;1.80;99.90
1461;DHT22;724;49.910;12.530;2023-12-20T14:25:15;1.80;99.90
1461;DHT22;724;49.910;12.530;2023-12-20T14:27:42;1.90;99.90
1461;DHT22;724;49.910;12.530;2023-12-20T14:30:10;1.90;99.90
1461;DHT22;724;49.910;12.530;2023-12-20T14:32:40;1.90;99.90
1461;DHT22;724;49.910;12.530;2023-12-20T14:35:07;1.90;99.90
1461;DHT22;724;49.910;12.530;2023-12-20T14:37:35;1.90;99.90
1461;DHT22;724;49.910;12.530;2023-12-20T14:40:05;1.80;99.90
1461;DHT22;724;49.910;12.530;2023-12-20T14:42:32;1.80;99.90
1461;DHT22;724;49.910;12.530;2023-12-20T14:44:58;1.70;99.90
1461;DHT22;724;49.910;12.530;2023-12-20T14:47:25;1.70;99.90
1461;DHT22;724;49.910;12.530;2023-12-20T14:49:54;1.70;99.90
1461;DHT22;724;49.910;12.530;2023-12-20T14:52:20;1.70;99.90
1461;DHT22;724;49.910;12.530;2023-12-20T14:54:48;1.70;99.90
1461;DHT22;724;49.910;12.530;2023-12-20T14:57:15;1.70;99.90
1461;DHT22;724;49.910;12.530;2023-12-20T14:59:43;1.60;99.90
1461;DHT22;724;49.910;12.530;2023-12-20T15:02:10;1.60;99.90
1461;DHT22;724;49.910;12.530;2023-12-20T15:04:37;1.60;99.90
1461;DHT22;724;49.910;12.530;2023-12-20T15:07:05;1.60;99.90
1461;DHT22;724;49.910;12.530;2023-12-20T15:09:32;1.60;99.90
1461;DHT22;724;49.910;12.530;2023-12-20T15:11:59;1.60;99.90
1461;DHT22;724;49.910;12.530;2023-12-20T15:14:26;1.60;99.90
1461;DHT22;724;49.910;12.530;2023-12-20T15:16:54;1.60;99.90
1461;DHT22;724;49.910;12.530;2023-12-20T15:19:21;1.60;99.90
1461;DHT22;724;49.910;12.530;2023-12-20T15:21:48;1.60;99.90
1461;DHT22;724;49.910;12.530;2023-12-20T15:24:17;1.60;99.90
1461;DHT22;724;49.910;12.530;2023-12-20T15:26:46;1.70;99.90
1461;DHT22;724;49.910;12.530;2023-12-20T15:29:13;1.70;99.90
1461;DHT22;724;49.910;12.530;2023-12-20T15:31:42;1.70;99.90
1461;DHT22;724;49.910;12.530;2023-12-20T15:34:09;1.70;99.90
1461;DHT22;724;49.910;12.530;2023-12-20T15:36:37;1.70;99.90
1461;DHT22;724;49.910;12.530;2023-12-20T15:39:04;1.70;99.90
1461;DHT22;724;49.910;12.530;2023-12-20T15:41:35;1.60;99.90
1461;DHT22;724;49.910;12.530;2023-12-20T15:44:02;1.70;99.90
1461;DHT22;724;49.910;12.530;2023-12-20T15:46:29;1.70;99.90
1461;DHT22;724;49.910;12.530;2023-12-20T15:48:55;1.70;99.90
1461;DHT22;724;49.910;12.530;2023-12-20T15:51:23;1.70;99.90
1461;DHT22;724;49.910;12.530;2023-12-20T15:53:50;1.70;99.90
1461;DHT22;724;49.910;12.530;2023-12-20T15:56:17;1.70;99.90
1461;DHT22;724;49.910;12.530;2023-12-20T15:58:45;1.70;99.90
1461;DHT22;724;49.910;12.530;2023-12-20T16:01:13;1.70;99.90
1461;DHT22;724;49.910;12.530;2023-12-20T16:03:40;1.70;99.90
1461;DHT22;724;49.910;12.530;2023-12-20T16:06:09;1.60;99.90
1461;DHT22;724;49.910;12.530;2023-12-20T16:08:35;1.70;99.90
1461;DHT22;724;49.910;12.530;2023-12-20T16:11:04;1.70;99.90
1461;DHT22;724;49.910;12.530;2023-12-20T16:13:30;1.70;99.90
1461;DHT22;724;49.910;12.530;2023-12-20T16:16:01;1.70;99.90
1461;DHT22;724;49.910;12.530;2023-12-20T16:18:27;1.70;99.90
1461;DHT22;724;49.910;12.530;2023-12-20T16:20:54;1.60;99.90
1461;DHT22;724;49.910;12.530;2023-12-20T16:23:22;1.70;99.90